createdAt,value
2022-12-19T01:12:22.517Z,92.19
2022-12-19T01:15:01.689Z,91.88
2022-12-19T01:17:35.536Z,92.13
2022-12-19T01:20:12.151Z,92.45
2022-12-19T01:22:39.074Z,92.72
2022-12-19T01:25:12.515Z,92.88
2022-12-19T01:27:39.837Z,93.12
2022-12-19T01:30:11.151Z,93.38
2022-12-19T01:32:38.441Z,93.61
2022-12-19T01:35:06.102Z,93.78
2022-12-19T01:37:37.172Z,94.01
2022-12-19T01:40:04.525Z,93.87
2022-12-19T01:42:36.466Z,94.12
2022-12-19T01:45:13.339Z,94.30
2022-12-19T01:49:11.129Z,94.45
2022-12-19T01:51:03.169Z,94.46
2022-12-19T01:53:48.270Z,94.29
2022-12-19T01:56:18.211Z,94.35
2022-12-19T01:59:06.139Z,94.35
2022-12-19T02:01:41.506Z,94.38
2022-12-19T02:07:26.545Z,94.39
2022-12-19T02:10:14.232Z,94.39
2022-12-19T02:12:45.866Z,94.44
2022-12-19T02:15:18.060Z,94.33
2022-12-19T02:18:14.483Z,94.25
2022-12-19T02:21:08.464Z,93.96
2022-12-19T02:23:57.521Z,93.90
2022-12-19T02:26:35.581Z,93.71
2022-12-19T02:29:26.952Z,93.31
2022-12-19T02:32:20.111Z,93.20
2022-12-19T02:34:59.565Z,93.03
2022-12-19T02:37:31.991Z,92.75
2022-12-19T02:40:20.481Z,92.74
2022-12-19T02:42:54.693Z,92.57
2022-12-19T02:45:28.807Z,92.52
2022-12-19T02:47:58.138Z,92.47
2022-12-19T02:50:43.608Z,92.28
2022-12-19T02:53:14.531Z,92.54
2022-12-19T02:55:54.077Z,92.43
2022-12-19T02:58:23.923Z,92.17
2022-12-19T03:01:17.856Z,91.71
2022-12-19T03:03:51.872Z,91.75
2022-12-19T03:06:26.505Z,91.55
2022-12-19T03:09:08.717Z,91.55
2022-12-19T03:11:43.031Z,91.63
2022-12-19T03:14:20.763Z,91.03
2022-12-19T03:16:53.543Z,90.93
2022-12-19T03:19:20.872Z,91.00
2022-12-19T03:21:53.242Z,91.02
2022-12-19T03:24:36.659Z,90.81
2022-12-19T03:27:14.469Z,90.93
2022-12-19T03:29:47.251Z,91.24
2022-12-19T03:32:15.743Z,91.02
2022-12-19T03:34:52.887Z,91.67
2022-12-19T03:37:25.387Z,92.09
2022-12-19T03:43:24.940Z,92.71
2022-12-19T03:46:14.464Z,93.24
2022-12-19T03:48:52.197Z,93.30
2022-12-19T03:51:59.600Z,93.96
2022-12-19T03:54:31.477Z,94.30
2022-12-19T03:57:15.713Z,94.20
2022-12-19T03:59:48.308Z,94.31
2022-12-19T04:05:30.811Z,94.51
2022-12-19T04:11:25.703Z,94.90
2022-12-19T04:20:05.760Z,95.56
2022-12-19T04:23:03.595Z,95.66
2022-12-19T04:25:49.011Z,95.94
2022-12-19T04:28:37.528Z,95.84
2022-12-19T04:31:38.857Z,95.69
2022-12-19T04:34:14.146Z,95.89
2022-12-19T04:37:03.889Z,96.02
2022-12-19T04:43:17.591Z,96.02
2022-12-19T04:45:45.932Z,96.08
2022-12-19T04:48:43.933Z,96.01
2022-12-19T04:51:55.138Z,96.01
2022-12-19T04:54:32.187Z,96.10
2022-12-19T04:57:23.086Z,96.03
2022-12-19T05:12:34.651Z,96.87
2022-12-19T05:15:23.805Z,97.05
2022-12-19T05:18:38.209Z,97.10
2022-12-19T05:21:15.561Z,97.15
2022-12-19T05:24:02.572Z,97.10
2022-12-19T05:33:20.750Z,97.10
2022-12-19T05:36:37.044Z,97.09
2022-12-19T05:39:27.857Z,97.02
2022-12-19T05:42:38.697Z,97.06
2022-12-19T05:45:17.666Z,97.08
2022-12-19T05:51:00.601Z,97.10
2022-12-19T06:55:02.429Z,96.18
2022-12-19T06:57:28.855Z,96.39
2022-12-19T06:59:55.395Z,96.51
2022-12-19T07:02:28.566Z,96.52
2022-12-19T07:05:02.916Z,96.56
2022-12-19T07:07:30.291Z,96.72
2022-12-19T07:09:56.834Z,96.74
2022-12-19T07:12:23.368Z,96.82
2022-12-19T07:14:53.340Z,96.91
2022-12-19T07:17:22.140Z,96.86
2022-12-19T07:19:48.599Z,96.81
2022-12-19T07:22:17.930Z,96.78
2022-12-19T07:24:44.480Z,96.85
2022-12-19T07:27:11.051Z,96.82
2022-12-19T07:33:39.483Z,96.86
2022-12-19T07:36:06.070Z,96.83
2022-12-19T07:38:32.590Z,96.89
2022-12-19T07:41:01.964Z,96.78
2022-12-19T07:43:28.410Z,96.93
2022-12-19T07:45:56.027Z,96.92
2022-12-19T07:48:23.277Z,96.89
2022-12-19T07:50:49.779Z,96.78
2022-12-19T07:53:16.710Z,96.50
2022-12-19T07:55:43.138Z,96.33
2022-12-19T07:58:12.568Z,96.20
2022-12-19T08:00:38.965Z,96.21
2022-12-19T08:03:05.444Z,96.31
2022-12-19T08:05:34.562Z,96.44
2022-12-19T08:08:01.043Z,96.56
2022-12-19T08:10:27.540Z,96.54
2022-12-19T08:12:54.007Z,96.31
2022-12-19T08:15:20.428Z,96.03
2022-12-19T08:17:46.911Z,96.25
2022-12-19T08:20:13.584Z,96.18
2022-12-19T08:22:40.185Z,96.28
2022-12-19T08:25:07.659Z,96.46
2022-12-19T08:27:34.966Z,96.53
2022-12-19T08:30:01.419Z,96.43
2022-12-19T08:32:28.961Z,96.33
2022-12-19T08:34:56.655Z,96.24
2022-12-19T08:37:23.183Z,96.30
2022-12-19T08:39:49.665Z,96.30
2022-12-19T08:42:16.197Z,96.39
2022-12-19T08:44:42.736Z,96.41
2022-12-19T08:47:09.733Z,96.40
2022-12-19T08:49:36.339Z,96.54
2022-12-19T08:52:02.923Z,96.70
2022-12-19T08:54:29.689Z,96.45
2022-12-19T08:56:56.394Z,96.49
2022-12-19T08:59:30.867Z,96.55
2022-12-19T09:01:58.685Z,96.41
2022-12-19T09:05:58.653Z,96.11
2022-12-19T09:07:15.635Z,96.25
2022-12-19T09:09:42.920Z,96.39
2022-12-19T09:12:09.470Z,96.39
2022-12-19T09:14:36.685Z,96.43
2022-12-19T09:17:04.552Z,96.58
2022-12-19T09:19:31.717Z,96.60
2022-12-19T09:21:58.246Z,96.46
2022-12-19T09:24:24.771Z,96.44
2022-12-19T09:26:51.233Z,96.36
2022-12-19T09:29:20.781Z,96.37
2022-12-19T09:31:55.721Z,96.36
2022-12-19T09:34:38.197Z,96.42
2022-12-19T09:37:11.612Z,96.41
2022-12-19T09:39:43.157Z,96.42
2022-12-19T09:42:40.931Z,96.47
2022-12-19T09:45:31.900Z,96.20
2022-12-19T09:48:00.116Z,96.31
2022-12-19T09:50:38.627Z,96.33
2022-12-19T09:53:19.281Z,96.27
2022-12-19T09:55:47.876Z,96.17
2022-12-19T09:58:39.274Z,96.06
2022-12-19T10:01:19.418Z,96.01
2022-12-19T10:03:57.988Z,95.92
2022-12-19T10:07:22.308Z,95.83
2022-12-19T10:11:42.853Z,96.02
2022-12-19T10:12:51.483Z,95.89
2022-12-19T10:15:43.038Z,95.80
2022-12-19T10:18:25.241Z,95.95
2022-12-19T10:22:07.653Z,95.98
2022-12-19T10:24:35.142Z,95.92
2022-12-19T10:27:13.225Z,95.85
2022-12-19T10:29:47.265Z,95.94
2022-12-19T10:32:44.908Z,96.02
2022-12-19T10:35:17.125Z,95.85
2022-12-19T10:37:50.955Z,95.78
2022-12-19T10:40:37.047Z,95.50
2022-12-19T10:43:19.114Z,95.58
2022-12-19T10:45:57.348Z,95.55
2022-12-19T10:48:30.391Z,95.27
2022-12-19T10:50:57.919Z,94.93
2022-12-19T10:53:29.410Z,94.91
2022-12-19T10:56:12.714Z,94.77
2022-12-19T10:58:44.300Z,94.97
2022-12-19T11:01:21.815Z,95.05
2022-12-19T11:03:53.157Z,95.12
2022-12-19T11:06:35.071Z,95.10
2022-12-19T11:09:18.172Z,95.10
2022-12-19T11:14:43.182Z,94.83
2022-12-19T11:18:47.126Z,94.63
2022-12-19T11:29:15.115Z,94.72
2022-12-19T11:29:31.809Z,94.57
2022-12-19T11:29:40.455Z,94.74
2022-12-19T11:30:46.599Z,94.39
2022-12-19T11:30:47.280Z,94.38
2022-12-19T11:34:26.887Z,94.31
2022-12-19T11:37:02.483Z,93.94
2022-12-19T11:40:08.105Z,94.21
2022-12-19T11:42:44.146Z,93.96
2022-12-19T11:45:36.373Z,93.85
2022-12-19T11:48:33.540Z,93.84
2022-12-19T11:51:07.461Z,93.53
2022-12-19T11:54:17.947Z,93.55
2022-12-19T11:56:44.689Z,93.70
2022-12-19T11:59:20.112Z,93.89
2022-12-19T12:01:58.449Z,93.48
2022-12-19T12:04:36.990Z,93.84
2022-12-19T12:07:06.748Z,93.60
2022-12-19T12:15:44.839Z,93.74
2022-12-19T12:23:18.359Z,93.57
2022-12-19T12:28:51.516Z,93.37
2022-12-19T12:31:02.723Z,93.25
2022-12-19T12:31:12.176Z,93.17
2022-12-19T12:31:25.830Z,93.19
2022-12-19T12:31:45.834Z,93.18
2022-12-19T12:35:46.222Z,92.99
2022-12-19T12:38:28.579Z,92.79
2022-12-19T12:41:19.330Z,92.37
2022-12-19T12:44:10.802Z,92.49
2022-12-19T12:46:43.257Z,92.30
2022-12-19T12:49:28.804Z,92.22
2022-12-19T12:51:56.094Z,92.23
2022-12-19T12:54:32.360Z,91.94
2022-12-19T12:56:58.923Z,91.47
2022-12-19T12:59:28.848Z,91.57
2022-12-19T13:02:14.459Z,91.48
2022-12-19T13:04:59.901Z,91.43
2022-12-19T13:07:44.982Z,91.40
2022-12-19T13:10:14.377Z,91.30
2022-12-19T13:13:03.028Z,91.07
2022-12-19T13:15:29.955Z,91.04
2022-12-19T13:18:00.716Z,90.96
2022-12-19T13:20:27.656Z,90.87
2022-12-19T13:22:58.222Z,90.41
2022-12-19T13:25:30.616Z,90.38
2022-12-19T13:28:03.864Z,90.01
2022-12-19T13:30:32.286Z,90.32
2022-12-19T13:33:16.919Z,90.13
2022-12-19T13:39:46.645Z,90.11
2022-12-19T13:40:02.475Z,90.13
2022-12-19T13:41:48.821Z,90.21
2022-12-19T13:44:21.074Z,90.20
2022-12-19T13:46:47.991Z,90.02
2022-12-19T13:49:19.881Z,89.95
2022-12-19T13:51:50.233Z,89.85
2022-12-19T13:54:30.368Z,89.95
2022-12-19T13:56:59.031Z,89.54
2022-12-19T13:59:30.833Z,89.66
2022-12-19T14:02:07.763Z,89.63
2022-12-19T14:04:34.578Z,89.55
2022-12-19T14:07:05.116Z,89.54
2022-12-19T14:11:31.040Z,89.36
2022-12-19T14:13:43.420Z,89.41
2022-12-19T14:15:52.085Z,89.59
2022-12-19T14:18:43.248Z,89.23
2022-12-19T14:22:04.467Z,89.50
2022-12-19T14:24:15.243Z,89.05
2022-12-19T14:28:20.527Z,89.15
2022-12-19T14:30:19.873Z,88.98
2022-12-19T14:33:47.423Z,88.95
2022-12-19T14:36:10.440Z,88.97
2022-12-19T14:39:19.568Z,88.95
2022-12-19T14:41:09.024Z,89.10
2022-12-19T14:43:59.171Z,88.69
2022-12-19T14:54:01.704Z,88.52
2022-12-19T14:54:11.922Z,88.89
2022-12-19T14:54:31.361Z,88.31
2022-12-19T14:56:15.944Z,88.33
2022-12-19T14:58:54.599Z,88.19
2022-12-19T15:01:24.401Z,87.94
2022-12-19T15:04:53.134Z,87.86
2022-12-19T15:07:08.952Z,87.44
2022-12-19T15:11:03.944Z,87.41
2022-12-19T15:14:53.480Z,87.36
2022-12-19T15:16:29.727Z,87.26
2022-12-19T15:18:58.872Z,87.41
2022-12-19T15:21:26.652Z,87.29
2022-12-19T15:23:53.390Z,87.20
2022-12-19T15:26:28.745Z,87.07
2022-12-19T15:28:56.792Z,86.96
2022-12-19T15:31:29.864Z,87.02
2022-12-19T15:36:43.341Z,86.99
2022-12-19T15:39:09.880Z,87.25
2022-12-19T15:41:36.658Z,87.09
2022-12-19T15:44:31.288Z,86.90
2022-12-19T15:46:59.152Z,86.99
2022-12-19T15:49:26.284Z,87.26
2022-12-19T15:51:52.803Z,87.05
2022-12-19T15:54:47.882Z,87.32
2022-12-19T15:57:25.964Z,87.59
2022-12-19T15:59:54.259Z,87.49
2022-12-19T16:02:42.667Z,87.07
2022-12-19T16:05:16.276Z,87.32
2022-12-19T16:07:42.817Z,87.37
2022-12-19T16:10:13.417Z,87.68
2022-12-19T16:12:52.979Z,88.06
2022-12-19T16:15:35.413Z,88.25
2022-12-19T16:18:03.590Z,88.16
2022-12-19T16:20:35.916Z,88.11
2022-12-19T16:23:02.652Z,88.35
2022-12-19T16:25:35.685Z,88.49
2022-12-19T16:28:03.974Z,88.61
2022-12-19T16:30:33.527Z,88.26
2022-12-19T16:33:01.010Z,88.62
2022-12-19T16:36:02.609Z,88.46
2022-12-19T16:38:16.490Z,88.03
2022-12-19T16:40:43.887Z,87.73
2022-12-19T16:43:15.802Z,88.02
2022-12-19T16:45:43.313Z,88.10
2022-12-19T16:48:23.407Z,88.19
2022-12-19T16:50:51.118Z,88.16
2022-12-19T16:53:18.255Z,88.21
2022-12-19T16:55:45.922Z,87.89
2022-12-19T16:58:22.026Z,88.02
2022-12-19T17:00:52.059Z,88.30
2022-12-19T17:03:43.439Z,88.22
2022-12-19T17:06:17.967Z,87.61
2022-12-19T17:08:45.237Z,87.70
2022-12-19T17:11:19.819Z,87.43
2022-12-19T17:13:49.145Z,87.60
2022-12-19T17:16:16.983Z,87.68
2022-12-19T17:18:45.727Z,87.56
2022-12-19T17:21:21.498Z,87.69
2022-12-19T17:23:49.857Z,87.76
2022-12-19T17:26:18.190Z,87.70
2022-12-19T17:28:48.129Z,87.34
2022-12-19T17:31:23.271Z,87.23
2022-12-19T17:33:50.661Z,87.21
2022-12-19T17:36:23.075Z,87.13
2022-12-19T17:38:51.656Z,86.98
2022-12-19T17:41:18.324Z,86.78
2022-12-19T17:43:44.847Z,87.09
2022-12-19T17:46:23.207Z,87.14
2022-12-19T17:48:51.884Z,87.05
2022-12-19T17:51:22.784Z,87.18
2022-12-19T17:53:50.108Z,87.33
2022-12-19T17:56:18.735Z,86.87
2022-12-19T17:58:45.824Z,87.21
2022-12-19T18:01:24.087Z,87.26
2022-12-19T18:03:53.012Z,87.38
2022-12-19T18:06:20.420Z,87.54
2022-12-19T18:08:47.016Z,87.34
2022-12-19T18:11:22.834Z,87.13
2022-12-19T18:13:49.992Z,87.27
2022-12-19T18:16:21.868Z,87.11
2022-12-19T18:18:48.581Z,87.28
2022-12-19T18:21:18.217Z,87.36
2022-12-19T18:23:45.544Z,87.28
2022-12-19T18:26:12.763Z,87.18
2022-12-19T18:28:40.617Z,87.31
2022-12-19T18:31:19.080Z,87.55
2022-12-19T18:33:47.127Z,87.45
2022-12-19T18:36:21.660Z,87.40
2022-12-19T18:38:48.799Z,87.47
2022-12-19T18:41:17.473Z,87.32
2022-12-19T18:43:44.544Z,87.45
2022-12-19T18:46:14.921Z,87.45
2022-12-19T18:48:43.029Z,87.34
2022-12-19T18:51:19.600Z,87.38
2022-12-19T18:53:48.122Z,87.39
2022-12-19T18:58:39.654Z,87.22
2022-12-19T19:01:11.730Z,87.15
2022-12-19T19:03:39.950Z,87.07
2022-12-19T19:06:17.751Z,87.26
2022-12-19T19:08:44.182Z,87.20
2022-12-19T19:11:10.734Z,87.31
2022-12-19T19:13:37.198Z,87.32
2022-12-19T19:16:15.644Z,87.22
2022-12-19T19:18:42.778Z,87.00
2022-12-19T19:21:13.381Z,87.06
2022-12-19T19:23:46.187Z,86.97
2022-12-19T19:26:12.998Z,87.11
2022-12-19T19:28:39.632Z,86.41
2022-12-19T19:31:09.074Z,86.56
2022-12-19T19:33:42.334Z,86.23
2022-12-19T19:36:13.199Z,86.10
2022-12-19T19:38:42.536Z,86.30
2022-12-19T19:41:09.113Z,86.14
2022-12-19T19:43:35.800Z,86.65
2022-12-19T19:46:02.892Z,86.47
2022-12-19T19:48:29.814Z,86.76
2022-12-19T19:50:57.223Z,86.74
2022-12-19T19:53:23.895Z,86.41
2022-12-19T19:56:00.876Z,86.67
2022-12-19T19:58:28.606Z,86.54
2022-12-19T20:00:56.790Z,86.30
2022-12-19T20:03:24.519Z,86.21
2022-12-19T20:05:59.186Z,86.28
2022-12-19T20:08:26.206Z,86.25
2022-12-19T20:10:56.636Z,86.04
2022-12-19T20:13:23.589Z,86.22
2022-12-19T20:15:50.921Z,86.05
2022-12-19T20:18:18.114Z,85.98
2022-12-19T20:20:48.140Z,86.16
2022-12-19T20:23:14.702Z,85.50
2022-12-19T20:25:43.182Z,85.71
2022-12-19T20:28:09.811Z,85.89
2022-12-19T20:30:37.817Z,85.83
2022-12-19T20:33:04.278Z,85.97
2022-12-19T20:35:31.330Z,86.07
2022-12-19T20:37:57.824Z,86.05
2022-12-19T20:40:24.309Z,86.00
2022-12-19T20:42:50.799Z,85.74
2022-12-19T20:45:17.343Z,86.01
2022-12-19T20:47:43.914Z,86.26
2022-12-19T20:50:12.960Z,86.23
2022-12-19T20:52:39.729Z,86.30
2022-12-19T20:55:07.025Z,86.05
2022-12-19T20:57:33.807Z,86.04
2022-12-19T21:00:01.032Z,85.93
2022-12-19T21:02:27.729Z,86.06
2022-12-19T21:04:54.506Z,86.21
2022-12-19T21:07:21.046Z,85.72
2022-12-19T21:09:50.162Z,85.76
2022-12-19T21:12:16.750Z,85.96
2022-12-19T21:14:43.622Z,85.63
2022-12-19T21:17:10.194Z,85.51
2022-12-19T21:19:36.741Z,85.50
2022-12-19T21:22:03.289Z,85.41
2022-12-19T21:24:29.872Z,85.42
2022-12-19T21:26:58.350Z,85.47
2022-12-19T21:29:25.349Z,85.60
2022-12-19T21:31:51.941Z,85.47
2022-12-19T21:34:18.598Z,85.62
2022-12-19T21:36:47.379Z,85.61
2022-12-19T21:39:13.865Z,85.49
2022-12-19T21:41:40.458Z,85.33
2022-12-19T21:44:06.887Z,85.34
2022-12-19T21:46:33.609Z,85.47
2022-12-19T21:49:00.683Z,85.33
2022-12-19T21:51:29.703Z,85.40
2022-12-19T21:54:00.472Z,85.58
2022-12-19T21:56:36.010Z,85.42
2022-12-19T21:59:05.685Z,85.58
2022-12-19T22:01:33.619Z,85.28
2022-12-19T22:04:02.749Z,84.91
2022-12-19T22:06:34.631Z,85.04
2022-12-19T22:09:03.400Z,85.00
2022-12-19T22:11:30.698Z,85.26
2022-12-19T22:14:00.234Z,84.81
2022-12-19T22:16:27.371Z,84.62
2022-12-19T22:18:54.997Z,84.80
2022-12-19T22:21:21.465Z,84.59
2022-12-19T22:23:47.991Z,84.60
2022-12-19T22:26:22.837Z,84.63
2022-12-19T22:28:52.979Z,84.55
2022-12-19T22:31:28.943Z,84.59
2022-12-19T22:33:58.343Z,84.74
2022-12-19T22:36:28.767Z,84.63
2022-12-19T22:38:56.875Z,84.71
2022-12-19T22:41:23.645Z,84.80
2022-12-19T22:43:50.395Z,84.72
2022-12-19T22:46:21.320Z,84.49
2022-12-19T22:48:49.691Z,84.63
2022-12-19T22:51:18.061Z,84.79
2022-12-19T22:53:44.908Z,84.85
2022-12-19T22:56:14.116Z,84.74
2022-12-19T22:58:44.620Z,84.85
2022-12-19T23:01:26.101Z,84.69
2022-12-19T23:03:54.493Z,84.66
2022-12-19T23:06:23.151Z,84.94
2022-12-19T23:08:49.776Z,84.75
2022-12-19T23:11:19.579Z,84.71
2022-12-19T23:13:47.438Z,84.47
2022-12-19T23:16:14.529Z,84.70
2022-12-19T23:18:41.796Z,84.53
2022-12-19T23:21:12.992Z,84.28
2022-12-19T23:23:42.600Z,84.21
2022-12-19T23:26:16.117Z,84.25
2022-12-19T23:28:44.922Z,84.44
2022-12-19T23:31:14.829Z,84.35
2022-12-19T23:33:41.335Z,83.79
2022-12-19T23:36:08.543Z,83.98
2022-12-19T23:38:35.072Z,84.03
2022-12-19T23:41:03.179Z,83.98
2022-12-19T23:43:31.212Z,84.01
2022-12-19T23:45:57.931Z,84.07
2022-12-19T23:48:26.353Z,84.08
2022-12-19T23:51:01.230Z,84.13
2022-12-19T23:53:28.015Z,84.24
2022-12-19T23:55:54.755Z,84.40
2022-12-19T23:58:24.671Z,83.87
